< < Back
Terminal Aerodrome Forecast


Current Version              Previous Versions:   1  2  3  4  5  6  7  8  9  

Terminal Aerodrome Forecast

039
FTUS42 KMLB 292054 AAB
TAFMCO
TAF AMD
KMCO 292054Z 2921/3018 22015KT P6SM VCTS SCT045CB BKN250
      TEMPO 2921/2922 VRB15G35KT 2SM +TSRA BKN025CB
     FM300000 26006KT P6SM BKN080 BKN250
     FM300600 26003KT P6SM SCT005 SCT100 BKN250
     FM301400 23009KT P6SM VCSH SCT020 SCT050 BKN250=



Latest METAR

021
SAUS70 KWBC 300800 RRE
MTRMCO
METAR KMCO 300753Z 23003KT 8SM FEW005 BKN250 24/24 A2997 RMK SLP148
T02390239


USA.gov is the U.S. government's official web portal to all federal, state and local government web resources and services.